CYPRPAUN

Guest
Details From CYPR - Prince Rupert
To PAUN - Unalakleet
Flight Number -
Tags Generated
Created
Modified
Stats Distance 1,084 nm / 2,008 km
Max Altitude 0 ft / 0 m
Waypoints 7
Social Downloads 2
Likes 0
Share VATSIM

Download

Looking for another format? Having issues loading an existing format? Contact us
Advertisement - Login to hide

Notes

Generated

Route

CYPR BKA02 LAIRE ZUSIG SITWE YAGUN PAUN

ID Type Via Altitude Latitude Longitude Leg Dist Tot Dist Heading (true) Name
O CYPR APT - 0 ft / 0 m 54.29334˚ -130.45165˚ - 0 nm - -
BKA02 FIX - 0 ft / 0 m 56.83029˚ -135.58075˚ 231 nm 231 nm 313° / 309° -
LAIRE FIX - 0 ft / 0 m 58.80407˚ -140.52871˚ 197 nm 428 nm 309° / 305° -
ZUSIG FIX - 0 ft / 0 m 60.81799˚ -146.96683˚ 228 nm 657 nm 305° / 299° -
SITWE FIX - 0 ft / 0 m 62.25000˚ -153.00000˚ 192 nm 850 nm 299° / 294° -
YAGUN FIX - 0 ft / 0 m 63.80489˚ -160.15525˚ 215 nm 1066 nm 299° / 292° -
O PAUN APT - 0 ft / 0 m 63.88345˚ -160.79903˚ 17 nm 1084 nm 286° / 285° -

Altitude Profile

Advertisement - Login to hide

Weather


0- 5 10 15 20 25 30 35+ Temperature / ° C

Clouds and Precipitation
Forecast for 2018-05-28 00:00 UTC. Updated an hour ago

Ground ~20,000 ft ~40,000 ft Winds

CYPR

Details ICAO CYPR (YPR)
Name Prince Rupert
Region Canada
Timezone America/Vancouver (UTC-7.0)
Stats Elevation 116 ft / 35 m (AMSL)
Location 54.286114° -130.444717°
Runways 1
Magnetic Variation 18.158° E

METAR

CYPR 280000Z AUTO 15015G20KT 130V190 2 1/2SM RA BR FEW018 OVC023 11/10 A2982 RMK VIS VRB 2-3 PCPN 4.8MM PAST HR SLP099

Decode

TAF

TAF AMD TAF AMD CYPR 272106Z 2721/2807 16008KT P6SM -RA SCT008 OVC020 TEMPO 2721/2807 2SM SHRA BR OVC008 BECMG 2803/2805 26012G22KT RMK FCST BASED ON AUTO OBS. NXT FCST BY 280100Z

Decode

Departure Runways

ID Width Length Bearing (true) Bearing (mag) Surface Threshold Offset Overrun Length
13 200 ft / 61 m 6,043 ft / 1,842 m 150.73° 132.57° Asphalt 0 ft / 0 m 0 ft / 0 m
31 200 ft / 61 m 6,043 ft / 1,842 m 330.74° 312.58° Asphalt 0 ft / 0 m 0 ft / 0 m

PAUN

Details ICAO PAUN (UNK)
Name Unalakleet
Region USA (Alaska)
Timezone America/Anchorage (UTC-8.0)
Stats Elevation 68 ft / 21 m (AMSL)
Location 63.886590° -160.796931°
Runways 2
Magnetic Variation 12.020° E

METAR

PAUN 272356Z AUTO 25008KT 10SM OVC021 05/00 A2997 RMK AO2 SLP152 T00500000 10056 20050 51006

Decode

TAF

TAF PAUN 272320Z 2800/2824 26009KT P6SM OVC019 FM281800 VRB05KT P6SM BKN250

Decode

Destination Runways

ID Width Length Bearing (true) Bearing (mag) Surface Threshold Offset Overrun Length
15 151 ft / 46 m 5,990 ft / 1,826 m 164.15° 152.13° Asphalt 0 ft / 0 m 499 ft / 152 m
26 79 ft / 24 m 1,993 ft / 608 m 278.43° 266.41° Asphalt 0 ft / 0 m 0 ft / 0 m
33 151 ft / 46 m 5,990 ft / 1,826 m 344.16° 332.14° Asphalt 0 ft / 0 m 0 ft / 0 m
8 79 ft / 24 m 1,993 ft / 608 m 98.42° 86.40° Asphalt 0 ft / 0 m 0 ft / 0 m